Time;durP1;ratioP1;P1;durP2;ratioP2;P2;SDS_P1;SDS_P2;PMS_P1;PMS_P2;Temp;Humidity;BMP_temperature;BMP_pressure;BME280_temperature;BME280_humidity;BME280_pressure;Samples;Min_cycle;Max_cycle;Signal;HPM_P1;HPM_P2
2021/08/09 00:00:47;;;;;;;11.93;2.47;;;17.80;99.30;;;;;;5064617;28;20469;-82
2021/08/09 00:03:15;;;;;;;11.03;2.20;;;17.30;99.90;;;;;;5063593;28;20410;-80
2021/08/09 00:05:42;;;;;;;8.73;2.05;;;16.70;99.90;;;;;;5061240;28;20513;-81
2021/08/09 00:08:09;;;;;;;11.52;2.45;;;16.30;99.90;;;;;;5064802;28;20492;-80
2021/08/09 00:10:36;;;;;;;8.38;2.13;;;15.90;99.90;;;;;;5065437;28;20722;-79
2021/08/09 00:13:03;;;;;;;13.27;2.60;;;15.70;99.90;;;;;;5067303;28;20740;-80
2021/08/09 00:15:30;;;;;;;7.07;2.00;;;15.50;99.90;;;;;;5067000;28;20390;-79
2021/08/09 00:17:57;;;;;;;12.95;2.28;;;15.30;99.90;;;;;;5063873;28;20402;-81
2021/08/09 00:20:30;;;;;;;8.40;2.00;;;15.20;99.90;;;;;;5075550;28;20488;-81
2021/08/09 00:22:57;;;;;;;9.93;2.30;;;15.00;99.90;;;;;;5072634;28;20463;-82
2021/08/09 00:25:24;;;;;;;8.00;1.63;;;15.00;99.90;;;;;;5072507;28;20400;-81
2021/08/09 00:27:51;;;;;;;13.52;2.97;;;15.00;99.90;;;;;;5069690;28;20409;-81
2021/08/09 00:30:18;;;;;;;5.82;1.35;;;15.10;99.90;;;;;;5068022;28;20744;-81
2021/08/09 00:32:45;;;;;;;9.50;1.80;;;15.10;99.90;;;;;;5072933;28;20394;-82
2021/08/09 00:35:12;;;;;;;9.73;1.67;;;15.00;99.90;;;;;;5065123;28;20465;-81
2021/08/09 00:37:41;;;;;;;6.95;1.42;;;14.90;99.90;;;;;;5069715;28;20402;-84
2021/08/09 00:40:08;;;;;;;8.40;1.40;;;15.00;99.90;;;;;;5074063;28;20402;-82
2021/08/09 00:42:35;;;;;;;9.57;1.73;;;15.10;99.90;;;;;;5070166;28;20539;-82
2021/08/09 00:45:03;;;;;;;7.65;1.65;;;15.30;99.90;;;;;;5074006;28;20414;-82
2021/08/09 00:47:31;;;;;;;6.70;1.40;;;15.40;99.90;;;;;;5078154;28;20457;-82
2021/08/09 00:49:58;;;;;;;7.00;1.67;;;15.40;99.90;;;;;;5068953;28;20404;-82
2021/08/09 00:52:25;;;;;;;9.70;2.03;;;15.40;99.90;;;;;;5068924;28;20409;-81
2021/08/09 00:54:52;;;;;;;6.90;1.50;;;15.30;99.90;;;;;;5079290;28;20464;-83
2021/08/09 00:57:19;;;;;;;7.47;1.77;;;15.20;99.90;;;;;;5058363;28;20495;-83
2021/08/09 00:59:46;;;;;;;8.88;1.40;;;15.20;99.90;;;;;;5099157;27;20896;-81
2021/08/09 01:02:13;;;;;;;7.50;1.70;;;15.20;99.90;;;;;;5071663;28;20394;-83
2021/08/09 01:04:40;;;;;;;10.77;2.03;;;15.20;99.90;;;;;;5071089;28;20440;-83
2021/08/09 01:07:09;;;;;;;10.32;2.25;;;15.30;99.90;;;;;;5079180;28;20396;-83
2021/08/09 01:09:57;;;;;;;8.40;1.80;;;15.30;99.90;;;;;;5068359;28;20394;-82
2021/08/09 01:12:43;;;;;;;9.52;1.67;;;15.40;99.90;;;;;;5074448;28;20394;-83
2021/08/09 01:15:29;;;;;;;9.88;1.80;;;15.30;99.90;;;;;;5064387;28;20941;-83
2021/08/09 01:18:01;;;;;;;7.50;2.00;;;15.30;99.90;;;;;;5069524;28;20397;-83
2021/08/09 01:20:58;;;;;;;27.83;2.83;;;15.30;99.90;;;;;;5104281;28;20432;-82
2021/08/09 01:24:05;;;;;;;7.85;1.48;;;15.30;99.90;;;;;;5076903;28;20410;-83
2021/08/09 01:26:57;;;;;;;6.80;1.80;;;15.30;99.90;;;;;;5065114;28;20389;-83
2021/08/09 01:29:48;;;;;;;11.17;2.00;;;15.40;99.90;;;;;;5072563;28;20413;-81
2021/08/09 01:32:17;;;;;;;7.45;1.70;;;15.40;99.90;;;;;;5061723;28;20394;-82
2021/08/09 01:34:44;;;;;;;9.02;1.80;;;15.60;99.90;;;;;;5061524;28;20398;-82
2021/08/09 01:37:12;;;;;;;107.35;7.35;;;15.80;99.90;;;;;;5082198;28;20397;-82
2021/08/09 01:39:40;;;;;;;9.85;1.92;;;15.80;99.90;;;;;;5068468;28;20498;-82
2021/08/09 01:42:09;;;;;;;8.07;2.10;;;15.80;99.90;;;;;;5064307;28;20480;-82
2021/08/09 01:44:37;;;;;;;10.32;2.00;;;16.00;99.90;;;;;;5071377;28;20493;-82
2021/08/09 01:47:04;;;;;;;9.45;2.15;;;16.20;99.90;;;;;;5047717;28;20400;-81
2021/08/09 01:49:32;;;;;;;10.93;1.90;;;16.30;99.90;;;;;;5032636;28;20431;-82
2021/08/09 01:52:01;;;;;;;7.82;1.90;;;16.40;99.90;;;;;;5050148;28;20386;-82
2021/08/09 01:54:30;;;;;;;10.50;2.10;;;16.40;99.90;;;;;;5053877;28;20465;-82
2021/08/09 01:56:57;;;;;;;11.27;1.67;;;16.40;99.90;;;;;;5047516;28;20486;-80
2021/08/09 01:59:24;;;;;;;7.75;1.80;;;16.50;99.90;;;;;;5052096;28;20408;-82
2021/08/09 02:01:52;;;;;;;7.60;1.60;;;16.50;99.60;;;;;;5066285;28;20396;-82
2021/08/09 02:04:22;;;;;;;9.20;1.90;;;16.30;99.90;;;;;;5055409;28;20453;-82
2021/08/09 02:06:49;;;;;;;6.65;2.00;;;16.10;99.90;;;;;;5052138;28;20386;-82
2021/08/09 02:09:17;;;;;;;7.47;1.42;;;16.10;99.90;;;;;;5072104;28;20405;-82
2021/08/09 02:11:54;;;;;;;9.05;1.67;;;16.10;99.90;;;;;;5027908;28;20410;-81
2021/08/09 02:14:25;;;;;;;6.20;1.95;;;16.00;99.90;;;;;;5051891;28;20403;-81
2021/08/09 02:17:14;;;;;;;16.00;2.55;;;16.00;99.70;;;;;;5064772;28;20403;-82
2021/08/09 02:19:44;;;;;;;7.63;1.50;;;15.80;99.90;;;;;;5049637;28;20400;-82
2021/08/09 02:22:24;;;;;;;7.38;1.80;;;15.80;99.90;;;;;;5048982;28;20400;-81
2021/08/09 02:25:04;;;;;;;7.90;1.70;;;15.90;99.90;;;;;;5049419;28;20401;-82
2021/08/09 02:27:42;;;;;;;7.00;1.63;;;16.00;99.90;;;;;;5046128;28;20399;-82
2021/08/09 02:30:11;;;;;;;10.05;2.20;;;16.00;99.90;;;;;;5032448;28;20392;-81
2021/08/09 02:32:40;;;;;;;9.85;2.60;;;16.10;99.90;;;;;;5046409;28;20403;-81
2021/08/09 02:35:16;;;;;;;10.43;2.10;;;16.10;99.90;;;;;;5053292;28;20448;-81
2021/08/09 02:37:45;;;;;;;10.45;1.95;;;16.00;99.90;;;;;;5056825;28;20450;-80
2021/08/09 02:40:15;;;;;;;9.27;2.20;;;16.00;99.90;;;;;;5050397;28;20419;-82
2021/08/09 02:42:43;;;;;;;10.55;2.50;;;16.00;99.90;;;;;;5056482;28;20806;-82
2021/08/09 02:45:10;;;;;;;7.35;1.88;;;16.10;99.90;;;;;;5070362;28;20455;-82
2021/08/09 02:47:39;;;;;;;6.47;1.45;;;16.20;99.90;;;;;;5061502;28;20398;-81
2021/08/09 02:50:10;;;;;;;9.13;1.70;;;16.40;99.90;;;;;;5054053;28;20394;-82
2021/08/09 02:52:42;;;;;;;6.95;1.70;;;16.50;99.90;;;;;;5078538;28;20384;-82
2021/08/09 02:55:10;;;;;;;9.50;1.98;;;16.70;99.90;;;;;;5055276;28;20457;-82
2021/08/09 02:57:38;;;;;;;9.87;2.13;;;16.90;99.90;;;;;;5088475;28;20388;-82
2021/08/09 03:00:06;;;;;;;6.80;1.75;;;16.90;99.90;;;;;;5084154;28;20410;-81
2021/08/09 03:02:37;;;;;;;8.60;1.80;;;16.70;99.90;;;;;;5090476;28;20392;-82
2021/08/09 03:05:07;;;;;;;9.95;1.70;;;16.60;99.90;;;;;;5080325;28;20410;-81
2021/08/09 03:07:37;;;;;;;9.57;2.22;;;16.40;99.90;;;;;;5077873;28;20392;-81
2021/08/09 03:10:08;;;;;;;6.18;1.58;;;16.30;99.90;;;;;;5087896;28;20380;-81
2021/08/09 03:12:35;;;;;;;9.10;1.67;;;16.20;99.90;;;;;;5099912;28;20420;-81
2021/08/09 03:15:03;;;;;;;6.85;1.80;;;16.20;99.90;;;;;;5052410;28;20394;-82
2021/08/09 03:17:30;;;;;;;7.60;1.58;;;16.20;99.90;;;;;;5083878;28;20384;-81
2021/08/09 03:19:57;;;;;;;9.38;1.92;;;16.20;99.90;;;;;;5067721;28;20403;-81
2021/08/09 03:22:24;;;;;;;8.23;1.95;;;16.20;99.90;;;;;;5088217;28;20400;-81
2021/08/09 03:24:51;;;;;;;11.38;1.90;;;16.30;99.80;;;;;;5085584;28;20783;-81
2021/08/09 03:27:18;;;;;;;13.75;2.25;;;16.30;99.50;;;;;;5077644;28;20397;-81
2021/08/09 03:29:45;;;;;;;9.07;1.80;;;16.30;99.50;;;;;;5065829;28;22216;-81
2021/08/09 03:32:12;;;;;;;7.53;1.80;;;16.20;99.90;;;;;;5074730;28;20454;-81
2021/08/09 03:34:39;;;;;;;9.60;2.10;;;16.30;99.70;;;;;;5072915;28;20382;-82
2021/08/09 03:37:06;;;;;;;9.82;1.65;;;16.30;99.00;;;;;;5061072;28;20769;-81
2021/08/09 03:39:34;;;;;;;9.13;2.08;;;16.20;99.50;;;;;;5066933;28;20498;-81
2021/08/09 03:42:01;;;;;;;8.07;1.53;;;16.20;99.40;;;;;;5091583;28;20357;-83
2021/08/09 03:44:28;;;;;;;7.53;1.60;;;16.30;99.60;;;;;;5069992;28;20404;-81
2021/08/09 03:46:55;;;;;;;8.25;1.65;;;16.50;99.60;;;;;;5075646;28;20381;-81
2021/08/09 03:49:22;;;;;;;10.27;1.70;;;16.70;98.90;;;;;;5068227;28;20487;-81
2021/08/09 03:51:50;;;;;;;11.88;1.90;;;16.70;98.50;;;;;;5082545;28;20752;-82
2021/08/09 03:54:17;;;;;;;8.55;1.88;;;16.60;98.80;;;;;;5083822;28;20392;-81
2021/08/09 03:56:44;;;;;;;7.10;1.80;;;16.50;99.20;;;;;;5075040;28;20902;-80
2021/08/09 03:59:11;;;;;;;10.48;1.88;;;16.50;99.30;;;;;;5064246;28;20493;-81
2021/08/09 04:01:39;;;;;;;6.57;1.85;;;16.50;99.60;;;;;;5068976;28;20406;-80
2021/08/09 04:04:07;;;;;;;8.77;2.00;;;16.50;99.30;;;;;;5089747;28;20732;-80
2021/08/09 04:06:35;;;;;;;10.85;2.08;;;16.50;98.90;;;;;;5056602;28;20845;-80
2021/08/09 04:09:02;;;;;;;10.70;1.92;;;16.50;99.00;;;;;;5055827;28;20394;-80
2021/08/09 04:11:30;;;;;;;7.88;1.70;;;16.60;99.20;;;;;;5054856;28;20397;-81
2021/08/09 04:13:57;;;;;;;11.02;1.80;;;16.60;99.60;;;;;;5081987;28;20393;-81
2021/08/09 04:16:26;;;;;;;7.68;2.00;;;16.50;99.70;;;;;;5093030;28;20376;-81
2021/08/09 04:18:53;;;;;;;7.45;1.90;;;16.40;99.90;;;;;;5092876;28;20407;-81
2021/08/09 04:21:22;;;;;;;8.43;1.98;;;16.40;99.90;;;;;;5080856;28;20476;-83
2021/08/09 04:23:49;;;;;;;7.18;2.03;;;16.30;99.90;;;;;;5067579;28;20420;-84
2021/08/09 04:26:19;;;;;;;11.38;2.22;;;16.30;99.90;;;;;;5091996;28;20399;-84
2021/08/09 04:28:47;;;;;;;9.57;1.65;;;16.30;99.90;;;;;;5081584;28;20498;-81
2021/08/09 04:31:14;;;;;;;9.05;2.15;;;16.20;99.90;;;;;;5067946;28;20417;-82
2021/08/09 04:33:46;;;;;;;8.88;1.98;;;16.20;99.90;;;;;;5072794;28;20390;-81
2021/08/09 04:36:14;;;;;;;11.85;2.28;;;16.10;99.90;;;;;;5049903;28;20908;-81
2021/08/09 04:38:42;;;;;;;7.78;2.15;;;16.10;99.90;;;;;;5059293;28;20400;-82
2021/08/09 04:41:12;;;;;;;8.63;2.00;;;16.00;99.90;;;;;;5082804;28;20438;-82
2021/08/09 04:43:41;;;;;;;8.90;1.83;;;16.00;99.90;;;;;;5075902;28;20410;-82
2021/08/09 04:46:09;;;;;;;13.82;2.03;;;16.10;99.90;;;;;;5070894;28;20382;-82
2021/08/09 04:48:37;;;;;;;13.18;1.92;;;16.00;99.90;;;;;;5071657;28;20488;-82
2021/08/09 04:51:04;;;;;;;10.07;1.88;;;16.00;99.90;;;;;;5070544;28;22064;-82
2021/08/09 04:53:31;;;;;;;8.73;1.95;;;16.00;99.90;;;;;;5097433;28;20404;-82
2021/08/09 04:55:59;;;;;;;7.30;1.75;;;16.00;99.90;;;;;;5066637;28;20927;-81
2021/08/09 04:58:26;;;;;;;12.93;2.00;;;16.00;99.90;;;;;;5072034;28;20405;-81
2021/08/09 05:00:53;;;;;;;10.07;2.38;;;16.00;99.90;;;;;;5082792;28;20394;-82
2021/08/09 05:03:21;;;;;;;6.95;1.50;;;16.00;99.90;;;;;;5068291;28;20410;-83
2021/08/09 05:05:48;;;;;;;10.07;1.87;;;16.10;99.90;;;;;;5070144;28;20490;-83
2021/08/09 05:08:18;;;;;;;9.52;2.00;;;16.00;99.90;;;;;;5067697;28;20427;-83
2021/08/09 05:10:45;;;;;;;6.78;1.40;;;16.00;99.90;;;;;;5071227;28;20386;-82
2021/08/09 05:13:13;;;;;;;10.57;2.00;;;16.00;99.90;;;;;;5070239;28;20870;-83
2021/08/09 05:15:40;;;;;;;7.15;1.70;;;15.90;99.90;;;;;;5067879;28;20401;-81
2021/08/09 05:18:13;;;;;;;10.90;1.95;;;15.90;99.90;;;;;;5068653;28;20407;-82
2021/08/09 05:20:40;;;;;;;9.73;1.83;;;15.90;99.90;;;;;;5062259;28;20378;-82
2021/08/09 05:23:09;;;;;;;10.95;2.05;;;15.90;99.90;;;;;;5069421;28;20513;-82
2021/08/09 05:25:36;;;;;;;6.70;1.70;;;15.90;99.90;;;;;;5070286;28;20418;-81
2021/08/09 05:28:03;;;;;;;7.13;2.10;;;15.90;99.90;;;;;;5071329;28;20393;-81
2021/08/09 05:30:31;;;;;;;8.85;2.10;;;15.90;99.90;;;;;;5071002;28;20433;-82
2021/08/09 05:33:02;;;;;;;8.90;1.60;;;15.90;99.90;;;;;;5072620;28;20875;-82
2021/08/09 05:35:29;;;;;;;9.10;2.10;;;15.90;99.90;;;;;;5068949;28;20401;-81
2021/08/09 05:37:56;;;;;;;8.43;1.75;;;15.90;99.90;;;;;;5070849;28;20402;-82
2021/08/09 05:40:24;;;;;;;9.00;1.88;;;15.90;99.90;;;;;;5068726;28;20400;-83
2021/08/09 05:42:53;;;;;;;7.85;2.10;;;15.90;99.90;;;;;;5068254;28;20410;-81
2021/08/09 05:45:20;;;;;;;11.85;2.13;;;15.90;99.90;;;;;;5070798;28;20492;-80
2021/08/09 05:47:48;;;;;;;6.87;1.97;;;15.80;99.90;;;;;;5076490;28;20397;-82
2021/08/09 05:50:17;;;;;;;8.23;2.07;;;15.80;99.90;;;;;;5058522;28;20398;-81
2021/08/09 05:52:45;;;;;;;8.45;2.22;;;15.70;99.90;;;;;;5063455;28;21331;-81
2021/08/09 05:55:15;;;;;;;8.23;1.77;;;15.70;99.90;;;;;;5062716;28;20407;-82
2021/08/09 05:57:42;;;;;;;11.00;2.30;;;15.70;99.90;;;;;;5063925;28;20474;-81
2021/08/09 06:00:10;;;;;;;11.18;1.88;;;15.60;99.90;;;;;;5061566;28;20406;-81
2021/08/09 06:02:44;;;;;;;13.38;2.42;;;15.50;99.90;;;;;;5061210;28;20428;-82
2021/08/09 06:05:12;;;;;;;11.00;2.05;;;15.50;99.90;;;;;;5063996;28;20413;-81
2021/08/09 06:07:39;;;;;;;14.05;2.40;;;15.50;99.90;;;;;;5067812;28;20398;-82
2021/08/09 06:10:07;;;;;;;10.25;1.80;;;15.40;99.90;;;;;;5062252;28;20398;-80
2021/08/09 06:12:36;;;;;;;12.35;2.53;;;15.30;99.90;;;;;;5064024;28;20477;-82
2021/08/09 06:15:07;;;;;;;10.25;2.25;;;15.30;99.90;;;;;;5064821;28;20414;-82
2021/08/09 06:17:35;;;;;;;12.70;2.50;;;15.30;99.90;;;;;;5059967;28;22019;-82
2021/08/09 06:20:03;;;;;;;10.20;2.00;;;15.20;99.90;;;;;;5078303;28;20795;-82
2021/08/09 06:22:30;;;;;;;11.48;2.35;;;15.20;99.90;;;;;;5063173;28;20914;-83
2021/08/09 06:24:57;;;;;;;9.95;2.10;;;15.10;99.90;;;;;;5062011;28;20508;-82
2021/08/09 06:27:24;;;;;;;13.93;2.07;;;15.00;99.90;;;;;;5071932;28;20369;-83
2021/08/09 06:29:51;;;;;;;12.73;2.63;;;15.00;99.90;;;;;;5071912;28;20403;-82
2021/08/09 06:32:18;;;;;;;14.30;2.65;;;15.00;99.90;;;;;;5065817;28;20396;-82
2021/08/09 06:34:45;;;;;;;18.23;2.92;;;14.90;99.90;;;;;;5068113;28;20471;-83
2021/08/09 06:37:13;;;;;;;11.35;3.00;;;14.90;99.90;;;;;;5061388;28;20513;-82
2021/08/09 06:39:40;;;;;;;13.07;2.37;;;14.80;99.90;;;;;;5071539;28;20409;-82
2021/08/09 06:42:09;;;;;;;15.80;2.55;;;14.70;99.90;;;;;;5071631;28;20402;-82
2021/08/09 06:44:36;;;;;;;13.20;2.42;;;14.70;99.90;;;;;;5069205;28;20401;-83
2021/08/09 06:47:04;;;;;;;8.70;2.35;;;14.60;99.90;;;;;;5069068;28;20483;-83
2021/08/09 06:49:31;;;;;;;12.93;2.70;;;14.60;99.90;;;;;;5077363;28;20436;-81
2021/08/09 06:51:58;;;;;;;9.23;2.63;;;14.50;99.90;;;;;;5059305;28;20399;-84
2021/08/09 06:54:25;;;;;;;9.87;2.50;;;14.40;99.90;;;;;;5073829;28;20884;-83
2021/08/09 06:56:53;;;;;;;12.43;2.47;;;14.30;99.90;;;;;;5063502;28;20488;-82
2021/08/09 06:59:21;;;;;;;13.43;2.88;;;14.20;99.90;;;;;;5071558;28;20398;-82
2021/08/09 07:01:48;;;;;;;13.48;2.65;;;14.20;99.90;;;;;;5085029;28;20394;-85
2021/08/09 07:04:15;;;;;;;13.65;2.97;;;14.20;99.90;;;;;;5070347;28;20416;-83
2021/08/09 07:06:53;;;;;;;17.02;2.50;;;14.10;99.90;;;;;;5071734;28;20370;-83
2021/08/09 07:09:21;;;;;;;12.60;2.17;;;14.00;99.90;;;;;;5071846;28;20494;-83
2021/08/09 07:11:49;;;;;;;13.43;2.60;;;13.90;99.90;;;;;;5071159;28;20404;-84
2021/08/09 07:14:21;;;;;;;14.82;2.38;;;13.90;99.90;;;;;;5071538;28;20401;-82
2021/08/09 07:16:50;;;;;;;17.15;2.83;;;13.90;99.90;;;;;;5075736;28;20390;-82
2021/08/09 07:19:17;;;;;;;11.82;2.92;;;13.80;99.90;;;;;;5070420;28;20428;-82
2021/08/09 07:21:44;;;;;;;12.20;2.40;;;13.70;99.90;;;;;;5067162;28;20398;-83
2021/08/09 07:24:11;;;;;;;13.47;2.33;;;13.60;99.90;;;;;;5064903;28;20410;-82
2021/08/09 07:26:38;;;;;;;13.63;2.60;;;13.60;99.90;;;;;;5068411;28;20755;-83
2021/08/09 07:29:06;;;;;;;12.30;2.38;;;13.40;99.90;;;;;;5069525;28;20420;-83
2021/08/09 07:31:34;;;;;;;12.15;2.33;;;13.40;99.90;;;;;;5068603;28;20394;-83
2021/08/09 07:34:01;;;;;;;11.97;2.30;;;13.40;99.90;;;;;;5068277;28;20432;-80
2021/08/09 07:36:28;;;;;;;12.30;2.67;;;13.30;99.90;;;;;;5070672;28;20380;-84
2021/08/09 07:38:55;;;;;;;11.50;2.33;;;13.30;99.90;;;;;;5067643;28;20744;-83
2021/08/09 07:41:22;;;;;;;13.55;2.60;;;13.20;99.90;;;;;;5062747;28;20431;-83
2021/08/09 07:43:49;;;;;;;14.87;2.60;;;13.10;99.90;;;;;;5068549;28;20420;-81
2021/08/09 07:46:16;;;;;;;12.95;2.50;;;13.10;99.90;;;;;;5077554;28;20877;-81
2021/08/09 07:48:44;;;;;;;16.20;2.88;;;13.00;99.90;;;;;;5066445;28;20474;-81
2021/08/09 07:51:11;;;;;;;12.18;3.10;;;13.00;99.90;;;;;;5069348;28;20409;-81
2021/08/09 07:53:38;;;;;;;12.05;3.03;;;12.90;99.90;;;;;;5091903;28;20406;-83
2021/08/09 07:56:05;;;;;;;13.35;2.67;;;12.90;99.90;;;;;;5061632;28;20382;-83
2021/08/09 07:58:33;;;;;;;16.42;2.55;;;12.90;99.90;;;;;;5069284;28;20413;-81
2021/08/09 08:01:00;;;;;;;16.67;3.00;;;12.80;99.90;;;;;;5063100;28;20838;-81
2021/08/09 08:03:27;;;;;;;14.50;2.33;;;12.70;99.90;;;;;;5063777;28;20547;-81
2021/08/09 08:05:54;;;;;;;12.00;2.58;;;12.70;99.90;;;;;;5070487;28;20386;-82
2021/08/09 08:08:21;;;;;;;14.80;2.63;;;12.70;99.90;;;;;;5062212;28;20426;-80
2021/08/09 08:10:48;;;;;;;11.50;2.20;;;12.70;99.90;;;;;;5071826;28;20407;-81
2021/08/09 08:13:15;;;;;;;12.18;2.63;;;12.60;99.90;;;;;;5062571;28;20424;-82
2021/08/09 08:15:43;;;;;;;13.32;2.90;;;12.60;99.90;;;;;;5067523;28;20886;-82
2021/08/09 08:18:10;;;;;;;12.02;2.22;;;12.60;99.90;;;;;;5063753;28;20512;-82
2021/08/09 08:20:37;;;;;;;13.63;2.53;;;12.50;99.90;;;;;;5062098;28;20386;-81
2021/08/09 08:23:04;;;;;;;12.30;2.25;;;12.50;99.90;;;;;;5064148;28;20927;-82
2021/08/09 08:25:32;;;;;;;14.10;2.85;;;12.50;99.90;;;;;;5063132;28;20857;-82
2021/08/09 08:27:59;;;;;;;14.35;2.45;;;12.50;99.90;;;;;;5062217;28;20471;-82
2021/08/09 08:30:27;;;;;;;11.95;2.40;;;12.40;99.90;;;;;;5066091;28;20409;-82
2021/08/09 08:32:54;;;;;;;16.98;2.72;;;12.40;99.90;;;;;;5065265;28;20441;-82
2021/08/09 08:35:21;;;;;;;15.35;2.65;;;12.30;99.90;;;;;;5058024;28;20400;-81
2021/08/09 08:37:48;;;;;;;11.20;2.50;;;12.40;99.90;;;;;;5059921;28;20398;-82
2021/08/09 08:40:16;;;;;;;13.18;2.88;;;12.30;99.90;;;;;;5061752;28;20448;-82
2021/08/09 08:42:46;;;;;;;16.48;2.85;;;12.30;99.90;;;;;;5065456;28;20402;-82
2021/08/09 08:45:21;;;;;;;11.50;2.88;;;12.30;99.90;;;;;;5078343;28;20456;-82
2021/08/09 08:47:49;;;;;;;12.48;2.83;;;12.30;99.90;;;;;;5069469;28;20533;-82
2021/08/09 08:50:18;;;;;;;17.77;2.85;;;12.30;99.90;;;;;;5062499;28;20401;-83
2021/08/09 08:52:49;;;;;;;13.63;2.60;;;12.20;99.90;;;;;;5079572;28;20401;-84
2021/08/09 08:55:17;;;;;;;15.55;2.58;;;12.20;99.90;;;;;;5068658;28;20397;-81
2021/08/09 08:57:46;;;;;;;12.93;3.03;;;12.20;99.90;;;;;;5067234;28;20909;-83
2021/08/09 09:00:14;;;;;;;11.95;2.40;;;12.10;99.90;;;;;;5066248;28;20422;-81
2021/08/09 09:02:41;;;;;;;15.10;3.23;;;12.10;99.90;;;;;;5096463;28;20401;-82
2021/08/09 09:05:14;;;;;;;14.38;3.35;;;12.10;99.90;;;;;;5076347;28;20877;-81
2021/08/09 09:07:43;;;;;;;14.27;2.70;;;12.10;99.90;;;;;;5062902;28;20924;-81
2021/08/09 09:10:17;;;;;;;15.32;2.90;;;12.10;99.90;;;;;;5064973;28;20904;-80
2021/08/09 09:13:05;;;;;;;14.80;2.65;;;12.10;99.90;;;;;;5071497;28;20386;-81
2021/08/09 09:15:32;;;;;;;16.30;3.20;;;12.10;99.90;;;;;;5084356;28;20404;-82
2021/08/09 09:17:59;;;;;;;10.77;2.63;;;12.10;99.90;;;;;;5072304;28;20908;-82
2021/08/09 09:20:31;;;;;;;11.02;2.65;;;12.10;99.90;;;;;;5069614;28;20402;-82
2021/08/09 09:23:20;;;;;;;13.40;2.80;;;12.00;99.90;;;;;;5065077;28;20920;-82
2021/08/09 09:25:48;;;;;;;13.73;2.75;;;12.00;99.90;;;;;;5066281;28;20385;-81
2021/08/09 09:28:29;;;;;;;15.85;3.13;;;12.00;99.90;;;;;;5069297;28;20402;-83
2021/08/09 09:31:02;;;;;;;15.18;3.38;;;11.90;99.90;;;;;;5069401;28;20925;-81
2021/08/09 09:33:31;;;;;;;14.40;2.95;;;11.90;99.90;;;;;;5069689;28;20393;-81
2021/08/09 09:36:03;;;;;;;17.02;3.40;;;11.90;99.90;;;;;;5098587;28;20383;-82
2021/08/09 09:38:42;;;;;;;15.23;3.07;;;12.00;99.90;;;;;;5060102;28;20958;-80
2021/08/09 09:41:11;;;;;;;16.65;3.10;;;11.90;99.90;;;;;;5069321;28;21406;-80
2021/08/09 09:43:40;;;;;;;16.00;3.78;;;11.90;99.90;;;;;;5074856;28;20427;-80
2021/08/09 09:46:19;;;;;;;16.87;3.10;;;11.80;99.90;;;;;;5071625;28;21273;-79
2021/08/09 09:48:47;;;;;;;16.90;3.22;;;11.80;99.90;;;;;;5075004;28;20440;-79
2021/08/09 09:51:17;;;;;;;11.45;2.80;;;11.80;99.90;;;;;;5084857;28;20805;-80
2021/08/09 09:53:47;;;;;;;15.80;3.00;;;11.80;99.90;;;;;;5050544;28;20458;-80
2021/08/09 09:56:14;;;;;;;14.00;3.03;;;11.80;99.90;;;;;;5045159;28;20398;-80
2021/08/09 09:58:42;;;;;;;16.73;3.20;;;11.90;99.90;;;;;;5065738;28;21012;-80
2021/08/09 10:01:10;;;;;;;16.45;3.15;;;11.90;99.90;;;;;;5062467;28;20402;-80
2021/08/09 10:03:39;;;;;;;16.33;2.77;;;11.80;99.90;;;;;;5077846;28;20406;-80
2021/08/09 10:06:07;;;;;;;13.23;3.13;;;11.80;99.90;;;;;;5082433;28;20497;-79
2021/08/09 10:08:41;;;;;;;12.80;2.73;;;11.80;99.90;;;;;;5071845;28;20433;-80
2021/08/09 10:11:09;;;;;;;9.48;2.58;;;11.80;99.90;;;;;;5068213;28;20895;-80
2021/08/09 10:13:39;;;;;;;14.70;3.47;;;11.80;99.90;;;;;;5066579;28;20469;-80
2021/08/09 10:16:10;;;;;;;18.40;3.50;;;11.80;99.90;;;;;;5068951;28;20397;-79
2021/08/09 10:18:43;;;;;;;15.68;3.10;;;11.80;99.90;;;;;;5066858;28;20453;-79
2021/08/09 10:21:10;;;;;;;14.73;3.40;;;11.80;99.90;;;;;;5069171;28;20482;-81
2021/08/09 10:23:41;;;;;;;16.17;2.90;;;11.70;99.90;;;;;;5048688;28;20417;-81
2021/08/09 10:26:14;;;;;;;15.18;3.10;;;11.70;99.90;;;;;;5063449;28;20395;-80
2021/08/09 10:28:54;;;;;;;14.07;3.20;;;11.60;99.90;;;;;;5069886;28;20415;-80
2021/08/09 10:31:24;;;;;;;18.77;3.67;;;11.60;99.90;;;;;;5074906;28;20401;-81
2021/08/09 10:33:53;;;;;;;14.98;3.08;;;11.50;99.90;;;;;;5072014;28;20596;-81
2021/08/09 10:36:21;;;;;;;20.90;3.63;;;11.50;99.90;;;;;;5069250;28;20388;-81
2021/08/09 10:38:50;;;;;;;16.35;4.80;;;11.50;99.90;;;;;;5071338;28;20390;-81
2021/08/09 10:41:24;;;;;;;17.50;4.35;;;11.40;99.90;;;;;;5071678;28;20380;-82
2021/08/09 10:44:07;;;;;;;14.50;3.78;;;11.50;99.90;;;;;;5054017;28;20422;-81
2021/08/09 10:46:39;;;;;;;12.23;2.88;;;11.40;99.90;;;;;;5078755;28;20404;-81
2021/08/09 10:49:29;;;;;;;14.68;3.53;;;11.40;99.90;;;;;;5046535;28;20472;-81
2021/08/09 10:51:56;;;;;;;15.02;3.50;;;11.40;99.90;;;;;;5059775;28;20401;-81
2021/08/09 10:54:31;;;;;;;11.93;3.20;;;11.40;99.90;;;;;;5073559;28;20479;-82
2021/08/09 10:57:00;;;;;;;13.30;3.15;;;11.30;99.90;;;;;;5071704;28;20443;-82
2021/08/09 10:59:45;;;;;;;10.07;3.00;;;11.30;99.90;;;;;;5077760;28;20395;-82
2021/08/09 11:02:35;;;;;;;10.00;2.87;;;11.30;99.90;;;;;;5077713;28;20479;-81
2021/08/09 11:05:17;;;;;;;11.63;2.47;;;11.30;99.90;;;;;;5066914;28;20553;-82
2021/08/09 11:07:48;;;;;;;14.73;3.42;;;11.40;99.90;;;;;;5063963;28;20396;-81
2021/08/09 11:10:58;;;;;;;12.13;2.75;;;11.40;99.90;;;;;;5049958;28;20424;-82
2021/08/09 11:13:29;;;;;;;13.57;3.03;;;11.30;99.90;;;;;;5042502;28;20387;-82
2021/08/09 11:16:01;;;;;;;19.50;3.80;;;11.30;99.90;;;;;;5075438;28;20898;-81
2021/08/09 11:18:30;;;;;;;16.17;3.13;;;11.30;99.90;;;;;;5051414;28;20760;-82
2021/08/09 11:21:06;;;;;;;18.83;3.45;;;11.30;99.90;;;;;;5062100;28;20389;-81
2021/08/09 11:23:42;;;;;;;16.80;3.22;;;11.30;99.90;;;;;;5064982;28;20446;-82
2021/08/09 11:26:32;;;;;;;14.85;3.15;;;11.30;99.90;;;;;;5071208;28;20408;-81
2021/08/09 11:29:05;;;;;;;16.88;3.53;;;11.30;99.90;;;;;;5069196;28;20891;-82
2021/08/09 11:31:50;;;;;;;17.03;3.33;;;11.20;99.90;;;;;;5085881;28;20492;-80
2021/08/09 11:34:17;;;;;;;15.05;3.35;;;11.30;99.90;;;;;;5086892;28;20385;-81
2021/08/09 11:36:44;;;;;;;16.10;3.28;;;11.30;99.90;;;;;;5076114;28;20432;-83
2021/08/09 11:39:11;;;;;;;13.75;3.22;;;11.30;99.90;;;;;;5082612;28;20858;-81
2021/08/09 11:41:40;;;;;;;12.52;2.90;;;11.30;99.90;;;;;;5050069;28;20876;-82
2021/08/09 11:44:09;;;;;;;12.80;3.22;;;11.30;99.90;;;;;;5058648;28;20927;-82
2021/08/09 11:46:50;;;;;;;14.27;3.63;;;11.20;99.90;;;;;;5069694;28;20774;-83
2021/08/09 11:49:20;;;;;;;15.45;3.13;;;11.20;99.90;;;;;;5064639;28;20908;-83
2021/08/09 11:51:48;;;;;;;15.27;3.42;;;11.20;99.90;;;;;;5064372;28;20393;-82
2021/08/09 11:54:17;;;;;;;17.02;3.30;;;11.20;99.90;;;;;;5062344;28;20425;-80
2021/08/09 11:56:55;;;;;;;17.38;3.28;;;11.20;99.90;;;;;;5063162;28;20784;-81
2021/08/09 11:59:22;;;;;;;16.02;3.55;;;11.20;99.90;;;;;;5063194;28;20453;-82
2021/08/09 12:01:49;;;;;;;13.90;3.17;;;11.20;99.90;;;;;;5062538;28;20382;-81
2021/08/09 12:04:21;;;;;;;18.15;3.53;;;11.30;99.90;;;;;;5069005;28;20406;-81
2021/08/09 12:06:56;;;;;;;13.70;4.18;;;11.20;99.90;;;;;;5063925;28;20797;-81
2021/08/09 12:09:42;;;;;;;13.93;3.25;;;11.20;99.90;;;;;;5068497;28;20378;-81
2021/08/09 12:12:12;;;;;;;14.93;3.47;;;11.20;99.90;;;;;;5066776;28;20385;-82
2021/08/09 12:14:39;;;;;;;14.38;3.38;;;11.20;99.90;;;;;;5065613;28;20471;-81
2021/08/09 12:17:21;;;;;;;17.38;3.50;;;11.20;99.90;;;;;;5064478;28;20406;-82
2021/08/09 12:19:50;;;;;;;16.20;3.80;;;11.00;99.90;;;;;;5064810;28;20432;-82
2021/08/09 12:22:34;;;;;;;11.35;3.72;;;11.00;99.90;;;;;;5059933;28;20394;-81
2021/08/09 12:25:14;;;;;;;15.18;3.92;;;11.00;99.90;;;;;;5064835;28;20807;-82
2021/08/09 12:27:42;;;;;;;16.40;3.78;;;10.90;99.90;;;;;;5065483;28;20389;-82
2021/08/09 12:30:14;;;;;;;13.73;3.80;;;10.90;99.90;;;;;;5068916;28;20397;-82
2021/08/09 12:33:07;;;;;;;13.57;3.80;;;10.80;99.90;;;;;;5068862;28;20885;-82
2021/08/09 12:35:40;;;;;;;14.77;4.13;;;10.80;99.90;;;;;;5071135;28;20428;-81
2021/08/09 12:38:10;;;;;;;14.27;4.63;;;10.90;99.90;;;;;;5073172;28;20891;-82
2021/08/09 12:40:53;;;;;;;15.00;4.45;;;10.90;99.90;;;;;;5076260;28;20855;-82
2021/08/09 12:43:22;;;;;;;16.08;4.13;;;10.90;99.90;;;;;;5070918;28;20406;-82
2021/08/09 12:45:50;;;;;;;19.08;4.70;;;11.00;99.90;;;;;;5071079;28;20394;-81
2021/08/09 12:48:17;;;;;;;13.70;3.78;;;11.00;99.90;;;;;;5051877;28;20437;-82
2021/08/09 12:50:45;;;;;;;15.23;3.72;;;11.00;99.90;;;;;;5073615;28;20741;-81
2021/08/09 12:53:13;;;;;;;12.23;4.30;;;11.00;99.90;;;;;;5068170;28;20407;-81
2021/08/09 12:55:40;;;;;;;11.90;4.07;;;10.90;99.90;;;;;;5071265;28;20406;-82